sensor_id;sensor_type;location;lat;lon;timestamp;temperature;humidity
59999;DHT22;45859;51.378;6.736;2022-08-02T00:01:50;16.40;99.90
59999;DHT22;45859;51.378;6.736;2022-08-02T00:04:15;16.40;99.90
59999;DHT22;45859;51.378;6.736;2022-08-02T00:06:41;16.30;99.90
59999;DHT22;45859;51.378;6.736;2022-08-02T00:09:07;16.30;99.90
59999;DHT22;45859;51.378;6.736;2022-08-02T00:11:32;16.40;99.90
59999;DHT22;45859;51.378;6.736;2022-08-02T00:13:58;16.40;99.90
59999;DHT22;45859;51.378;6.736;2022-08-02T00:16:24;16.40;99.90
59999;DHT22;45859;51.378;6.736;2022-08-02T00:18:49;16.30;99.90
59999;DHT22;45859;51.378;6.736;2022-08-02T00:21:15;16.30;99.90
59999;DHT22;45859;51.378;6.736;2022-08-02T00:23:41;16.20;99.90
59999;DHT22;45859;51.378;6.736;2022-08-02T00:26:06;16.20;99.90
59999;DHT22;45859;51.378;6.736;2022-08-02T00:28:32;16.20;99.90
59999;DHT22;45859;51.378;6.736;2022-08-02T00:30:58;16.20;99.90
59999;DHT22;45859;51.378;6.736;2022-08-02T00:33:25;16.10;99.90
59999;DHT22;45859;51.378;6.736;2022-08-02T00:35:50;16.20;99.90
59999;DHT22;45859;51.378;6.736;2022-08-02T00:38:16;16.20;99.90
59999;DHT22;45859;51.378;6.736;2022-08-02T00:40:49;16.20;99.90
59999;DHT22;45859;51.378;6.736;2022-08-02T00:43:15;16.10;99.90
59999;DHT22;45859;51.378;6.736;2022-08-02T00:45:41;16.10;99.90
59999;DHT22;45859;51.378;6.736;2022-08-02T00:48:09;16.10;99.90
59999;DHT22;45859;51.378;6.736;2022-08-02T00:50:35;16.10;99.90
59999;DHT22;45859;51.378;6.736;2022-08-02T00:53:01;16.00;99.90
59999;DHT22;45859;51.378;6.736;2022-08-02T00:55:27;16.10;99.90
59999;DHT22;45859;51.378;6.736;2022-08-02T00:57:53;16.00;99.90
59999;DHT22;45859;51.378;6.736;2022-08-02T01:00:20;16.00;99.90
59999;DHT22;45859;51.378;6.736;2022-08-02T01:02:46;15.90;99.90
59999;DHT22;45859;51.378;6.736;2022-08-02T01:05:12;15.90;99.90
59999;DHT22;45859;51.378;6.736;2022-08-02T01:07:38;16.00;99.90
59999;DHT22;45859;51.378;6.736;2022-08-02T01:10:05;16.00;99.90
59999;DHT22;45859;51.378;6.736;2022-08-02T01:12:31;16.00;99.90
59999;DHT22;45859;51.378;6.736;2022-08-02T01:15:00;16.00;99.90
59999;DHT22;45859;51.378;6.736;2022-08-02T01:30:56;15.90;99.90
59999;DHT22;45859;51.378;6.736;2022-08-02T01:33:25;15.80;99.90
59999;DHT22;45859;51.378;6.736;2022-08-02T01:35:55;15.80;99.90
59999;DHT22;45859;51.378;6.736;2022-08-02T01:38:28;15.80;99.90
59999;DHT22;45859;51.378;6.736;2022-08-02T01:40:56;15.80;99.90
59999;DHT22;45859;51.378;6.736;2022-08-02T01:43:24;15.70;99.90
59999;DHT22;45859;51.378;6.736;2022-08-02T01:45:52;15.70;99.90
59999;DHT22;45859;51.378;6.736;2022-08-02T01:48:19;15.60;99.90
59999;DHT22;45859;51.378;6.736;2022-08-02T01:50:47;15.60;99.90
59999;DHT22;45859;51.378;6.736;2022-08-02T01:53:13;15.60;99.90
59999;DHT22;45859;51.378;6.736;2022-08-02T01:55:45;15.60;99.90
59999;DHT22;45859;51.378;6.736;2022-08-02T01:58:16;15.50;99.90
59999;DHT22;45859;51.378;6.736;2022-08-02T02:00:44;15.50;99.90
59999;DHT22;45859;51.378;6.736;2022-08-02T02:03:18;15.50;99.90
59999;DHT22;45859;51.378;6.736;2022-08-02T02:05:47;15.50;99.90
59999;DHT22;45859;51.378;6.736;2022-08-02T02:08:14;15.50;99.90
59999;DHT22;45859;51.378;6.736;2022-08-02T02:10:44;15.40;99.90
59999;DHT22;45859;51.378;6.736;2022-08-02T02:13:17;15.30;99.90
59999;DHT22;45859;51.378;6.736;2022-08-02T02:15:47;15.20;99.90
59999;DHT22;45859;51.378;6.736;2022-08-02T02:18:23;15.10;99.90
59999;DHT22;45859;51.378;6.736;2022-08-02T02:20:50;15.20;99.90
59999;DHT22;45859;51.378;6.736;2022-08-02T02:23:16;15.10;99.90
59999;DHT22;45859;51.378;6.736;2022-08-02T02:25:43;15.10;99.90
59999;DHT22;45859;51.378;6.736;2022-08-02T02:28:13;15.10;99.90
59999;DHT22;45859;51.378;6.736;2022-08-02T02:30:44;15.10;99.90
59999;DHT22;45859;51.378;6.736;2022-08-02T02:33:13;15.10;99.90
59999;DHT22;45859;51.378;6.736;2022-08-02T02:35:41;15.10;99.90
59999;DHT22;45859;51.378;6.736;2022-08-02T02:38:10;15.10;99.90
59999;DHT22;45859;51.378;6.736;2022-08-02T02:40:39;15.00;99.90
59999;DHT22;45859;51.378;6.736;2022-08-02T02:43:07;15.00;99.90
59999;DHT22;45859;51.378;6.736;2022-08-02T02:45:35;15.00;99.90
59999;DHT22;45859;51.378;6.736;2022-08-02T02:48:03;14.90;99.90
59999;DHT22;45859;51.378;6.736;2022-08-02T02:50:29;14.90;99.90
59999;DHT22;45859;51.378;6.736;2022-08-02T02:52:56;14.90;99.90
59999;DHT22;45859;51.378;6.736;2022-08-02T02:55:23;14.80;99.90
59999;DHT22;45859;51.378;6.736;2022-08-02T02:57:50;14.90;99.90
59999;DHT22;45859;51.378;6.736;2022-08-02T03:00:16;14.90;99.90
59999;DHT22;45859;51.378;6.736;2022-08-02T03:02:43;14.90;99.90
59999;DHT22;45859;51.378;6.736;2022-08-02T03:05:11;14.80;99.90
59999;DHT22;45859;51.378;6.736;2022-08-02T03:07:37;14.80;99.90
59999;DHT22;45859;51.378;6.736;2022-08-02T03:10:05;14.80;99.90
59999;DHT22;45859;51.378;6.736;2022-08-02T03:12:32;14.80;99.90
59999;DHT22;45859;51.378;6.736;2022-08-02T03:15:00;14.70;99.90
59999;DHT22;45859;51.378;6.736;2022-08-02T03:17:41;14.70;99.90
59999;DHT22;45859;51.378;6.736;2022-08-02T03:20:13;14.80;99.90
59999;DHT22;45859;51.378;6.736;2022-08-02T03:22:39;14.70;99.90
59999;DHT22;45859;51.378;6.736;2022-08-02T03:25:07;14.80;99.90
59999;DHT22;45859;51.378;6.736;2022-08-02T03:27:33;14.70;99.90
59999;DHT22;45859;51.378;6.736;2022-08-02T03:29:58;14.70;99.90
59999;DHT22;45859;51.378;6.736;2022-08-02T03:32:24;14.60;99.90
59999;DHT22;45859;51.378;6.736;2022-08-02T03:34:50;14.70;99.90
59999;DHT22;45859;51.378;6.736;2022-08-02T03:37:16;14.60;99.90
59999;DHT22;45859;51.378;6.736;2022-08-02T03:39:43;14.70;99.90
59999;DHT22;45859;51.378;6.736;2022-08-02T03:42:10;14.60;99.90
59999;DHT22;45859;51.378;6.736;2022-08-02T03:44:37;14.70;99.90
59999;DHT22;45859;51.378;6.736;2022-08-02T03:47:05;14.60;99.90
59999;DHT22;45859;51.378;6.736;2022-08-02T03:49:32;14.60;99.90
59999;DHT22;45859;51.378;6.736;2022-08-02T03:51:59;14.60;99.90
59999;DHT22;45859;51.378;6.736;2022-08-02T03:54:25;14.60;99.90
59999;DHT22;45859;51.378;6.736;2022-08-02T03:56:52;14.60;99.90
59999;DHT22;45859;51.378;6.736;2022-08-02T03:59:18;14.60;99.90
59999;DHT22;45859;51.378;6.736;2022-08-02T04:01:43;14.60;99.90
59999;DHT22;45859;51.378;6.736;2022-08-02T04:04:09;14.60;99.90
59999;DHT22;45859;51.378;6.736;2022-08-02T04:06:35;14.60;99.90
59999;DHT22;45859;51.378;6.736;2022-08-02T04:09:01;14.60;99.90
59999;DHT22;45859;51.378;6.736;2022-08-02T04:11:27;14.60;99.90
59999;DHT22;45859;51.378;6.736;2022-08-02T04:13:57;14.60;99.90
59999;DHT22;45859;51.378;6.736;2022-08-02T04:16:30;14.60;99.90
59999;DHT22;45859;51.378;6.736;2022-08-02T04:19:01;14.50;99.90
59999;DHT22;45859;51.378;6.736;2022-08-02T04:21:31;14.60;99.90
59999;DHT22;45859;51.378;6.736;2022-08-02T04:23:59;14.60;99.90
59999;DHT22;45859;51.378;6.736;2022-08-02T04:26:27;14.60;99.90
59999;DHT22;45859;51.378;6.736;2022-08-02T04:28:54;14.60;99.90
59999;DHT22;45859;51.378;6.736;2022-08-02T04:31:20;14.70;99.90
59999;DHT22;45859;51.378;6.736;2022-08-02T04:33:46;14.70;99.90
59999;DHT22;45859;51.378;6.736;2022-08-02T04:36:12;14.70;99.90
59999;DHT22;45859;51.378;6.736;2022-08-02T04:38:41;14.70;99.90
59999;DHT22;45859;51.378;6.736;2022-08-02T04:41:07;14.80;99.90
59999;DHT22;45859;51.378;6.736;2022-08-02T04:43:33;14.90;99.90
59999;DHT22;45859;51.378;6.736;2022-08-02T04:45:59;15.00;99.90
59999;DHT22;45859;51.378;6.736;2022-08-02T04:48:27;15.00;99.90
59999;DHT22;45859;51.378;6.736;2022-08-02T04:50:53;15.00;99.90
59999;DHT22;45859;51.378;6.736;2022-08-02T04:53:19;15.10;99.90
59999;DHT22;45859;51.378;6.736;2022-08-02T04:55:45;15.10;99.90
59999;DHT22;45859;51.378;6.736;2022-08-02T04:58:12;15.10;99.90
59999;DHT22;45859;51.378;6.736;2022-08-02T05:00:38;15.10;99.90
59999;DHT22;45859;51.378;6.736;2022-08-02T05:03:04;15.20;99.90
59999;DHT22;45859;51.378;6.736;2022-08-02T05:05:30;15.20;99.90
59999;DHT22;45859;51.378;6.736;2022-08-02T05:07:55;15.30;99.90
59999;DHT22;45859;51.378;6.736;2022-08-02T05:10:21;15.40;99.90
59999;DHT22;45859;51.378;6.736;2022-08-02T05:12:47;15.60;99.90
59999;DHT22;45859;51.378;6.736;2022-08-02T05:15:13;15.70;99.90
59999;DHT22;45859;51.378;6.736;2022-08-02T05:17:41;15.80;99.90
59999;DHT22;45859;51.378;6.736;2022-08-02T05:20:08;15.80;99.90
59999;DHT22;45859;51.378;6.736;2022-08-02T05:22:33;16.00;99.90
59999;DHT22;45859;51.378;6.736;2022-08-02T05:24:59;16.20;99.90
59999;DHT22;45859;51.378;6.736;2022-08-02T05:27:25;16.30;99.90
59999;DHT22;45859;51.378;6.736;2022-08-02T05:29:50;16.50;99.90
59999;DHT22;45859;51.378;6.736;2022-08-02T05:32:17;16.70;99.90
59999;DHT22;45859;51.378;6.736;2022-08-02T05:34:43;16.80;99.90
59999;DHT22;45859;51.378;6.736;2022-08-02T05:37:09;17.00;99.90
59999;DHT22;45859;51.378;6.736;2022-08-02T05:39:34;17.10;99.90
59999;DHT22;45859;51.378;6.736;2022-08-02T05:42:00;17.30;99.90
59999;DHT22;45859;51.378;6.736;2022-08-02T05:44:26;17.50;99.90
59999;DHT22;45859;51.378;6.736;2022-08-02T05:46:51;17.50;99.90
59999;DHT22;45859;51.378;6.736;2022-08-02T05:49:17;17.60;99.90
59999;DHT22;45859;51.378;6.736;2022-08-02T05:51:54;17.70;99.90
59999;DHT22;45859;51.378;6.736;2022-08-02T05:57:41;18.10;99.90
59999;DHT22;45859;51.378;6.736;2022-08-02T06:00:13;19.20;99.90
59999;DHT22;45859;51.378;6.736;2022-08-02T06:07:50;20.30;99.90
59999;DHT22;45859;51.378;6.736;2022-08-02T06:10:26;20.90;99.90
59999;DHT22;45859;51.378;6.736;2022-08-02T06:13:12;21.20;99.90
59999;DHT22;45859;51.378;6.736;2022-08-02T06:15:39;22.10;99.90
59999;DHT22;45859;51.378;6.736;2022-08-02T06:18:06;22.20;99.90
59999;DHT22;45859;51.378;6.736;2022-08-02T06:20:33;22.50;99.90
59999;DHT22;45859;51.378;6.736;2022-08-02T06:23:07;22.70;99.90
59999;DHT22;45859;51.378;6.736;2022-08-02T06:25:36;23.10;99.90
59999;DHT22;45859;51.378;6.736;2022-08-02T06:28:05;23.20;99.90
59999;DHT22;45859;51.378;6.736;2022-08-02T06:30:32;23.20;99.90
59999;DHT22;45859;51.378;6.736;2022-08-02T06:32:59;23.50;99.90
59999;DHT22;45859;51.378;6.736;2022-08-02T06:35:33;24.00;99.90
59999;DHT22;45859;51.378;6.736;2022-08-02T06:38:00;24.60;99.90
59999;DHT22;45859;51.378;6.736;2022-08-02T06:43:11;24.50;99.90
59999;DHT22;45859;51.378;6.736;2022-08-02T06:45:38;24.10;99.90
59999;DHT22;45859;51.378;6.736;2022-08-02T06:48:05;23.90;99.90
59999;DHT22;45859;51.378;6.736;2022-08-02T06:50:31;23.70;99.90
59999;DHT22;45859;51.378;6.736;2022-08-02T06:53:00;23.80;99.90
59999;DHT22;45859;51.378;6.736;2022-08-02T06:55:26;24.10;99.90
59999;DHT22;45859;51.378;6.736;2022-08-02T06:57:54;24.00;99.90
59999;DHT22;45859;51.378;6.736;2022-08-02T07:00:19;24.00;99.90
59999;DHT22;45859;51.378;6.736;2022-08-02T07:02:45;24.20;99.90
59999;DHT22;45859;51.378;6.736;2022-08-02T07:05:11;24.30;99.90
59999;DHT22;45859;51.378;6.736;2022-08-02T07:07:37;25.00;99.90
59999;DHT22;45859;51.378;6.736;2022-08-02T07:10:03;25.00;99.90
59999;DHT22;45859;51.378;6.736;2022-08-02T07:12:30;25.10;99.90
59999;DHT22;45859;51.378;6.736;2022-08-02T07:14:57;25.30;99.90
59999;DHT22;45859;51.378;6.736;2022-08-02T07:17:23;25.10;99.90
59999;DHT22;45859;51.378;6.736;2022-08-02T07:19:49;25.30;99.90
59999;DHT22;45859;51.378;6.736;2022-08-02T07:22:15;25.40;99.90
59999;DHT22;45859;51.378;6.736;2022-08-02T07:24:42;26.00;99.90
59999;DHT22;45859;51.378;6.736;2022-08-02T07:27:10;26.40;99.90
59999;DHT22;45859;51.378;6.736;2022-08-02T07:29:36;25.80;99.90
59999;DHT22;45859;51.378;6.736;2022-08-02T07:32:02;26.10;99.90
59999;DHT22;45859;51.378;6.736;2022-08-02T07:34:28;26.20;99.90
59999;DHT22;45859;51.378;6.736;2022-08-02T07:36:54;26.00;99.90
59999;DHT22;45859;51.378;6.736;2022-08-02T07:39:22;26.60;99.90
59999;DHT22;45859;51.378;6.736;2022-08-02T07:41:48;26.90;99.90
59999;DHT22;45859;51.378;6.736;2022-08-02T07:44:17;26.20;99.90
59999;DHT22;45859;51.378;6.736;2022-08-02T07:46:44;26.70;99.90
59999;DHT22;45859;51.378;6.736;2022-08-02T07:49:10;28.00;99.90
59999;DHT22;45859;51.378;6.736;2022-08-02T07:51:35;28.30;99.90
59999;DHT22;45859;51.378;6.736;2022-08-02T07:54:01;28.30;99.90
59999;DHT22;45859;51.378;6.736;2022-08-02T07:56:27;29.60;99.90
59999;DHT22;45859;51.378;6.736;2022-08-02T07:58:53;29.50;99.90
59999;DHT22;45859;51.378;6.736;2022-08-02T08:01:19;29.10;99.90
59999;DHT22;45859;51.378;6.736;2022-08-02T08:03:47;28.90;99.90
59999;DHT22;45859;51.378;6.736;2022-08-02T08:06:13;28.80;99.90
59999;DHT22;45859;51.378;6.736;2022-08-02T08:08:39;28.20;99.90
59999;DHT22;45859;51.378;6.736;2022-08-02T08:11:04;28.90;99.90
59999;DHT22;45859;51.378;6.736;2022-08-02T08:13:30;29.80;99.90
59999;DHT22;45859;51.378;6.736;2022-08-02T08:15:56;29.60;99.90
59999;DHT22;45859;51.378;6.736;2022-08-02T08:18:22;29.60;99.90
59999;DHT22;45859;51.378;6.736;2022-08-02T08:20:48;29.20;99.90
59999;DHT22;45859;51.378;6.736;2022-08-02T08:23:14;29.50;99.90
59999;DHT22;45859;51.378;6.736;2022-08-02T08:25:39;30.20;99.90
59999;DHT22;45859;51.378;6.736;2022-08-02T08:28:05;30.30;99.90
59999;DHT22;45859;51.378;6.736;2022-08-02T08:30:31;30.00;99.90
59999;DHT22;45859;51.378;6.736;2022-08-02T08:32:57;30.00;99.90
59999;DHT22;45859;51.378;6.736;2022-08-02T08:35:22;30.30;99.90
59999;DHT22;45859;51.378;6.736;2022-08-02T08:37:48;30.40;99.90
59999;DHT22;45859;51.378;6.736;2022-08-02T08:40:14;30.50;99.90
59999;DHT22;45859;51.378;6.736;2022-08-02T08:42:40;29.80;99.90
59999;DHT22;45859;51.378;6.736;2022-08-02T08:45:06;29.50;99.90
59999;DHT22;45859;51.378;6.736;2022-08-02T08:47:38;30.00;99.90
59999;DHT22;45859;51.378;6.736;2022-08-02T08:50:07;30.80;99.90
59999;DHT22;45859;51.378;6.736;2022-08-02T08:52:41;30.50;99.90
59999;DHT22;45859;51.378;6.736;2022-08-02T08:55:09;30.40;99.90
59999;DHT22;45859;51.378;6.736;2022-08-02T08:57:40;30.70;99.90
59999;DHT22;45859;51.378;6.736;2022-08-02T09:00:07;30.50;99.90
59999;DHT22;45859;51.378;6.736;2022-08-02T09:02:35;30.20;99.90
59999;DHT22;45859;51.378;6.736;2022-08-02T09:05:00;30.10;99.90
59999;DHT22;45859;51.378;6.736;2022-08-02T09:07:27;29.90;99.90
59999;DHT22;45859;51.378;6.736;2022-08-02T09:09:53;30.10;99.90
59999;DHT22;45859;51.378;6.736;2022-08-02T09:12:19;30.60;99.90
59999;DHT22;45859;51.378;6.736;2022-08-02T09:14:49;30.70;99.90
59999;DHT22;45859;51.378;6.736;2022-08-02T09:17:15;31.10;99.90
59999;DHT22;45859;51.378;6.736;2022-08-02T09:19:41;31.10;99.90
59999;DHT22;45859;51.378;6.736;2022-08-02T09:22:09;31.10;99.90
59999;DHT22;45859;51.378;6.736;2022-08-02T09:24:42;31.30;99.90
59999;DHT22;45859;51.378;6.736;2022-08-02T09:27:13;31.00;99.90
59999;DHT22;45859;51.378;6.736;2022-08-02T09:29:39;31.10;99.90
59999;DHT22;45859;51.378;6.736;2022-08-02T09:32:06;30.90;99.90
59999;DHT22;45859;51.378;6.736;2022-08-02T09:34:50;30.70;99.90
59999;DHT22;45859;51.378;6.736;2022-08-02T09:37:29;30.80;99.90
59999;DHT22;45859;51.378;6.736;2022-08-02T09:39:56;30.70;99.90
59999;DHT22;45859;51.378;6.736;2022-08-02T09:42:25;30.80;99.90
59999;DHT22;45859;51.378;6.736;2022-08-02T09:44:54;30.50;99.90
59999;DHT22;45859;51.378;6.736;2022-08-02T09:47:21;30.10;99.90
59999;DHT22;45859;51.378;6.736;2022-08-02T09:49:47;29.60;99.90
59999;DHT22;45859;51.378;6.736;2022-08-02T09:52:14;29.30;99.90
59999;DHT22;45859;51.378;6.736;2022-08-02T09:54:40;29.20;99.90
59999;DHT22;45859;51.378;6.736;2022-08-02T09:57:07;29.20;99.90
59999;DHT22;45859;51.378;6.736;2022-08-02T09:59:33;29.00;99.90
59999;DHT22;45859;51.378;6.736;2022-08-02T10:02:00;28.90;99.90
59999;DHT22;45859;51.378;6.736;2022-08-02T10:04:29;29.10;99.90
59999;DHT22;45859;51.378;6.736;2022-08-02T10:06:54;29.20;99.90
59999;DHT22;45859;51.378;6.736;2022-08-02T10:09:21;29.20;99.90
59999;DHT22;45859;51.378;6.736;2022-08-02T10:11:48;29.10;99.90
59999;DHT22;45859;51.378;6.736;2022-08-02T10:14:14;29.10;99.90
59999;DHT22;45859;51.378;6.736;2022-08-02T10:16:42;28.80;99.90
59999;DHT22;45859;51.378;6.736;2022-08-02T10:19:09;28.70;99.90
59999;DHT22;45859;51.378;6.736;2022-08-02T10:21:51;28.70;99.90
59999;DHT22;45859;51.378;6.736;2022-08-02T10:24:26;28.40;99.90
59999;DHT22;45859;51.378;6.736;2022-08-02T10:26:52;28.30;99.90
59999;DHT22;45859;51.378;6.736;2022-08-02T10:29:26;28.30;99.90
59999;DHT22;45859;51.378;6.736;2022-08-02T10:32:00;28.10;99.90
59999;DHT22;45859;51.378;6.736;2022-08-02T10:34:46;28.20;99.90
59999;DHT22;45859;51.378;6.736;2022-08-02T10:37:13;28.20;99.90
59999;DHT22;45859;51.378;6.736;2022-08-02T10:39:42;28.30;99.90
59999;DHT22;45859;51.378;6.736;2022-08-02T10:42:09;28.30;99.90
59999;DHT22;45859;51.378;6.736;2022-08-02T10:44:36;28.60;99.90
59999;DHT22;45859;51.378;6.736;2022-08-02T10:47:28;28.70;99.90
59999;DHT22;45859;51.378;6.736;2022-08-02T10:49:59;28.80;99.90
59999;DHT22;45859;51.378;6.736;2022-08-02T10:52:29;29.10;99.90
59999;DHT22;45859;51.378;6.736;2022-08-02T10:55:02;29.40;99.90
59999;DHT22;45859;51.378;6.736;2022-08-02T10:57:34;29.40;99.90
59999;DHT22;45859;51.378;6.736;2022-08-02T11:00:26;29.40;99.90
59999;DHT22;45859;51.378;6.736;2022-08-02T11:02:53;29.60;99.90
59999;DHT22;45859;51.378;6.736;2022-08-02T11:05:32;29.80;99.90
59999;DHT22;45859;51.378;6.736;2022-08-02T11:07:58;29.80;99.90
59999;DHT22;45859;51.378;6.736;2022-08-02T11:10:41;29.80;99.90
59999;DHT22;45859;51.378;6.736;2022-08-02T11:13:16;29.80;99.90
59999;DHT22;45859;51.378;6.736;2022-08-02T11:15:49;29.70;99.90
59999;DHT22;45859;51.378;6.736;2022-08-02T11:18:16;29.90;99.90
59999;DHT22;45859;51.378;6.736;2022-08-02T11:20:41;29.90;99.90
59999;DHT22;45859;51.378;6.736;2022-08-02T11:23:33;29.70;99.90
59999;DHT22;45859;51.378;6.736;2022-08-02T11:25:58;29.60;99.90
59999;DHT22;45859;51.378;6.736;2022-08-02T11:28:25;29.60;99.90
59999;DHT22;45859;51.378;6.736;2022-08-02T11:30:58;29.70;99.90
59999;DHT22;45859;51.378;6.736;2022-08-02T11:33:32;29.70;99.90
59999;DHT22;45859;51.378;6.736;2022-08-02T11:36:03;29.60;99.90
59999;DHT22;45859;51.378;6.736;2022-08-02T11:38:29;29.30;99.90
59999;DHT22;45859;51.378;6.736;2022-08-02T11:40:55;29.20;99.90
59999;DHT22;45859;51.378;6.736;2022-08-02T11:43:23;29.20;99.90
59999;DHT22;45859;51.378;6.736;2022-08-02T11:45:50;29.40;99.90
59999;DHT22;45859;51.378;6.736;2022-08-02T11:56:09;29.50;99.90
59999;DHT22;45859;51.378;6.736;2022-08-02T11:58:35;29.30;99.90
59999;DHT22;45859;51.378;6.736;2022-08-02T12:01:01;29.40;99.90
59999;DHT22;45859;51.378;6.736;2022-08-02T12:03:27;29.60;99.90
59999;DHT22;45859;51.378;6.736;2022-08-02T12:05:57;29.90;99.90
59999;DHT22;45859;51.378;6.736;2022-08-02T12:08:26;30.10;99.90
59999;DHT22;45859;51.378;6.736;2022-08-02T12:10:52;30.20;99.90
59999;DHT22;45859;51.378;6.736;2022-08-02T12:13:18;30.20;99.90
59999;DHT22;45859;51.378;6.736;2022-08-02T12:15:45;30.10;99.90
59999;DHT22;45859;51.378;6.736;2022-08-02T12:18:17;30.10;99.90
59999;DHT22;45859;51.378;6.736;2022-08-02T12:21:03;29.70;99.90
59999;DHT22;45859;51.378;6.736;2022-08-02T12:23:29;29.40;99.90
59999;DHT22;45859;51.378;6.736;2022-08-02T12:26:02;29.20;99.90
59999;DHT22;45859;51.378;6.736;2022-08-02T12:28:33;29.20;99.90
59999;DHT22;45859;51.378;6.736;2022-08-02T12:30:59;28.90;99.90
59999;DHT22;45859;51.378;6.736;2022-08-02T12:33:43;29.00;99.90
59999;DHT22;45859;51.378;6.736;2022-08-02T12:36:21;28.80;99.90
59999;DHT22;45859;51.378;6.736;2022-08-02T12:38:58;28.70;99.90
59999;DHT22;45859;51.378;6.736;2022-08-02T12:41:25;28.80;99.90
59999;DHT22;45859;51.378;6.736;2022-08-02T12:43:52;29.10;99.90
59999;DHT22;45859;51.378;6.736;2022-08-02T12:46:21;29.10;99.90
59999;DHT22;45859;51.378;6.736;2022-08-02T12:48:48;29.20;99.90
59999;DHT22;45859;51.378;6.736;2022-08-02T12:51:37;29.20;99.90
59999;DHT22;45859;51.378;6.736;2022-08-02T12:54:18;29.30;99.90
59999;DHT22;45859;51.378;6.736;2022-08-02T12:56:45;29.10;99.90
59999;DHT22;45859;51.378;6.736;2022-08-02T12:59:12;29.10;99.90
59999;DHT22;45859;51.378;6.736;2022-08-02T13:01:39;29.10;99.90
59999;DHT22;45859;51.378;6.736;2022-08-02T13:04:05;29.10;99.90
59999;DHT22;45859;51.378;6.736;2022-08-02T13:06:32;29.10;99.90
59999;DHT22;45859;51.378;6.736;2022-08-02T13:08:58;29.30;99.90
59999;DHT22;45859;51.378;6.736;2022-08-02T13:11:24;29.50;99.90
59999;DHT22;45859;51.378;6.736;2022-08-02T13:13:50;29.50;99.90
59999;DHT22;45859;51.378;6.736;2022-08-02T13:16:16;29.50;99.90
59999;DHT22;45859;51.378;6.736;2022-08-02T13:18:42;29.60;99.90
59999;DHT22;45859;51.378;6.736;2022-08-02T13:21:10;29.70;99.90
59999;DHT22;45859;51.378;6.736;2022-08-02T13:23:36;29.70;99.90
59999;DHT22;45859;51.378;6.736;2022-08-02T13:26:02;29.60;99.90
59999;DHT22;45859;51.378;6.736;2022-08-02T13:28:28;29.40;99.90
59999;DHT22;45859;51.378;6.736;2022-08-02T13:30:54;29.00;99.90
59999;DHT22;45859;51.378;6.736;2022-08-02T13:33:20;28.90;99.90
59999;DHT22;45859;51.378;6.736;2022-08-02T13:35:46;29.10;99.90
59999;DHT22;45859;51.378;6.736;2022-08-02T13:38:12;29.10;99.90
59999;DHT22;45859;51.378;6.736;2022-08-02T13:40:38;29.20;99.90
59999;DHT22;45859;51.378;6.736;2022-08-02T13:43:24;29.30;99.90
59999;DHT22;45859;51.378;6.736;2022-08-02T13:45:50;29.30;99.90
59999;DHT22;45859;51.378;6.736;2022-08-02T13:48:16;29.10;99.90
59999;DHT22;45859;51.378;6.736;2022-08-02T13:50:42;29.10;99.90
59999;DHT22;45859;51.378;6.736;2022-08-02T13:53:08;29.10;99.90
59999;DHT22;45859;51.378;6.736;2022-08-02T13:55:34;29.10;99.90
59999;DHT22;45859;51.378;6.736;2022-08-02T13:58:00;29.00;99.90
59999;DHT22;45859;51.378;6.736;2022-08-02T14:00:27;28.80;99.90
59999;DHT22;45859;51.378;6.736;2022-08-02T14:02:52;28.70;99.90
59999;DHT22;45859;51.378;6.736;2022-08-02T14:05:18;28.70;99.90
59999;DHT22;45859;51.378;6.736;2022-08-02T14:07:44;28.60;99.90
59999;DHT22;45859;51.378;6.736;2022-08-02T14:10:10;28.80;99.90
59999;DHT22;45859;51.378;6.736;2022-08-02T14:12:35;28.90;99.90
59999;DHT22;45859;51.378;6.736;2022-08-02T14:15:01;28.90;99.90
59999;DHT22;45859;51.378;6.736;2022-08-02T14:17:27;28.70;99.90
59999;DHT22;45859;51.378;6.736;2022-08-02T14:19:53;28.80;99.90
59999;DHT22;45859;51.378;6.736;2022-08-02T14:22:18;28.70;99.90
59999;DHT22;45859;51.378;6.736;2022-08-02T14:24:44;28.70;99.90
59999;DHT22;45859;51.378;6.736;2022-08-02T14:27:10;28.70;99.90
59999;DHT22;45859;51.378;6.736;2022-08-02T14:29:36;28.70;99.90
59999;DHT22;45859;51.378;6.736;2022-08-02T14:32:01;28.60;99.90
59999;DHT22;45859;51.378;6.736;2022-08-02T14:34:27;28.80;99.90
59999;DHT22;45859;51.378;6.736;2022-08-02T14:36:55;28.90;99.90
59999;DHT22;45859;51.378;6.736;2022-08-02T14:39:21;28.90;99.90
59999;DHT22;45859;51.378;6.736;2022-08-02T14:41:47;28.80;99.90
59999;DHT22;45859;51.378;6.736;2022-08-02T14:44:12;28.80;99.90
59999;DHT22;45859;51.378;6.736;2022-08-02T14:46:40;28.90;99.90
59999;DHT22;45859;51.378;6.736;2022-08-02T14:49:07;29.00;99.90
59999;DHT22;45859;51.378;6.736;2022-08-02T14:51:35;29.10;99.90
59999;DHT22;45859;51.378;6.736;2022-08-02T14:54:03;29.10;99.90
59999;DHT22;45859;51.378;6.736;2022-08-02T14:56:29;29.10;99.90
59999;DHT22;45859;51.378;6.736;2022-08-02T14:58:55;29.10;99.90
59999;DHT22;45859;51.378;6.736;2022-08-02T15:01:21;29.00;99.90
59999;DHT22;45859;51.378;6.736;2022-08-02T15:03:47;28.90;99.90
59999;DHT22;45859;51.378;6.736;2022-08-02T15:06:12;28.90;99.90
59999;DHT22;45859;51.378;6.736;2022-08-02T15:08:38;28.90;99.90
59999;DHT22;45859;51.378;6.736;2022-08-02T15:11:04;29.00;99.90
59999;DHT22;45859;51.378;6.736;2022-08-02T15:13:30;29.10;99.90
59999;DHT22;45859;51.378;6.736;2022-08-02T15:15:55;29.20;99.90
59999;DHT22;45859;51.378;6.736;2022-08-02T15:18:21;29.10;99.90
59999;DHT22;45859;51.378;6.736;2022-08-02T15:20:47;29.10;99.90
59999;DHT22;45859;51.378;6.736;2022-08-02T15:23:13;29.10;99.90
59999;DHT22;45859;51.378;6.736;2022-08-02T15:25:39;29.10;99.90
59999;DHT22;45859;51.378;6.736;2022-08-02T15:28:05;29.00;99.90
59999;DHT22;45859;51.378;6.736;2022-08-02T15:30:34;29.00;99.90
59999;DHT22;45859;51.378;6.736;2022-08-02T15:33:00;28.90;99.90
59999;DHT22;45859;51.378;6.736;2022-08-02T15:35:26;28.90;99.90
59999;DHT22;45859;51.378;6.736;2022-08-02T15:37:51;28.90;99.90
59999;DHT22;45859;51.378;6.736;2022-08-02T15:40:17;28.90;99.90
59999;DHT22;45859;51.378;6.736;2022-08-02T15:42:43;28.90;99.90
59999;DHT22;45859;51.378;6.736;2022-08-02T15:45:09;28.80;99.90
59999;DHT22;45859;51.378;6.736;2022-08-02T15:47:35;28.70;99.90
59999;DHT22;45859;51.378;6.736;2022-08-02T15:50:01;28.60;99.90
59999;DHT22;45859;51.378;6.736;2022-08-02T15:52:27;28.60;99.90
59999;DHT22;45859;51.378;6.736;2022-08-02T15:54:53;28.50;99.90
59999;DHT22;45859;51.378;6.736;2022-08-02T15:57:19;28.50;99.90
59999;DHT22;45859;51.378;6.736;2022-08-02T15:59:45;28.50;99.90
59999;DHT22;45859;51.378;6.736;2022-08-02T16:02:11;28.50;99.90
59999;DHT22;45859;51.378;6.736;2022-08-02T16:04:38;28.50;99.90
59999;DHT22;45859;51.378;6.736;2022-08-02T16:07:04;28.50;99.90